sensor_id;sensor_type;location;lat;lon;timestamp;P1;durP1;ratioP1;P2;durP2;ratioP2
74777;SDS011;63298;53.164;8.610;2023-09-18T00:00:53;5.35;;;4.85;;
74777;SDS011;63298;53.164;8.610;2023-09-18T00:03:19;6.30;;;5.70;;
74777;SDS011;63298;53.164;8.610;2023-09-18T00:05:48;6.13;;;5.03;;
74777;SDS011;63298;53.164;8.610;2023-09-18T00:08:14;5.78;;;5.10;;
74777;SDS011;63298;53.164;8.610;2023-09-18T00:10:40;6.82;;;5.13;;
74777;SDS011;63298;53.164;8.610;2023-09-18T00:13:06;6.82;;;5.43;;
74777;SDS011;63298;53.164;8.610;2023-09-18T00:15:32;8.13;;;5.47;;
74777;SDS011;63298;53.164;8.610;2023-09-18T00:17:57;9.07;;;5.30;;
74777;SDS011;63298;53.164;8.610;2023-09-18T00:20:22;6.95;;;5.55;;
74777;SDS011;63298;53.164;8.610;2023-09-18T00:22:48;8.98;;;5.00;;
74777;SDS011;63298;53.164;8.610;2023-09-18T00:25:13;6.80;;;5.75;;
74777;SDS011;63298;53.164;8.610;2023-09-18T00:27:38;6.22;;;5.55;;
74777;SDS011;63298;53.164;8.610;2023-09-18T00:30:04;6.65;;;5.60;;
74777;SDS011;63298;53.164;8.610;2023-09-18T00:32:30;8.43;;;5.30;;
74777;SDS011;63298;53.164;8.610;2023-09-18T00:34:55;9.23;;;5.50;;
74777;SDS011;63298;53.164;8.610;2023-09-18T00:37:20;7.47;;;5.95;;
74777;SDS011;63298;53.164;8.610;2023-09-18T00:39:46;6.60;;;5.63;;
74777;SDS011;63298;53.164;8.610;2023-09-18T00:42:11;6.93;;;6.20;;
74777;SDS011;63298;53.164;8.610;2023-09-18T00:44:36;9.15;;;6.00;;
74777;SDS011;63298;53.164;8.610;2023-09-18T00:47:02;9.10;;;5.82;;
74777;SDS011;63298;53.164;8.610;2023-09-18T00:49:27;8.73;;;6.10;;
74777;SDS011;63298;53.164;8.610;2023-09-18T00:51:52;6.28;;;5.68;;
74777;SDS011;63298;53.164;8.610;2023-09-18T00:54:18;7.35;;;6.35;;
74777;SDS011;63298;53.164;8.610;2023-09-18T00:56:47;8.38;;;5.65;;
74777;SDS011;63298;53.164;8.610;2023-09-18T00:59:13;7.18;;;5.72;;
74777;SDS011;63298;53.164;8.610;2023-09-18T01:01:39;5.80;;;5.22;;
74777;SDS011;63298;53.164;8.610;2023-09-18T01:04:05;7.07;;;5.28;;
74777;SDS011;63298;53.164;8.610;2023-09-18T01:06:31;8.43;;;5.85;;
74777;SDS011;63298;53.164;8.610;2023-09-18T01:08:56;12.13;;;6.43;;
74777;SDS011;63298;53.164;8.610;2023-09-18T01:11:34;6.13;;;5.50;;
74777;SDS011;63298;53.164;8.610;2023-09-18T01:14:14;10.65;;;5.53;;
74777;SDS011;63298;53.164;8.610;2023-09-18T01:16:57;5.60;;;5.03;;
74777;SDS011;63298;53.164;8.610;2023-09-18T01:19:40;6.55;;;5.18;;
74777;SDS011;63298;53.164;8.610;2023-09-18T01:22:07;8.57;;;5.43;;
74777;SDS011;63298;53.164;8.610;2023-09-18T01:24:34;7.10;;;5.38;;
74777;SDS011;63298;53.164;8.610;2023-09-18T01:27:01;7.10;;;5.45;;
74777;SDS011;63298;53.164;8.610;2023-09-18T01:29:27;6.80;;;5.15;;
74777;SDS011;63298;53.164;8.610;2023-09-18T01:31:53;5.95;;;5.28;;
74777;SDS011;63298;53.164;8.610;2023-09-18T01:34:19;7.13;;;4.70;;
74777;SDS011;63298;53.164;8.610;2023-09-18T01:36:49;8.70;;;5.38;;
74777;SDS011;63298;53.164;8.610;2023-09-18T01:39:15;9.55;;;5.32;;
74777;SDS011;63298;53.164;8.610;2023-09-18T01:41:42;6.93;;;5.30;;
74777;SDS011;63298;53.164;8.610;2023-09-18T01:44:08;8.57;;;5.63;;
74777;SDS011;63298;53.164;8.610;2023-09-18T01:46:33;6.15;;;5.28;;
74777;SDS011;63298;53.164;8.610;2023-09-18T01:49:00;6.55;;;5.72;;
74777;SDS011;63298;53.164;8.610;2023-09-18T01:51:25;6.50;;;4.85;;
74777;SDS011;63298;53.164;8.610;2023-09-18T01:53:51;7.45;;;5.68;;
74777;SDS011;63298;53.164;8.610;2023-09-18T01:56:18;5.10;;;4.63;;
74777;SDS011;63298;53.164;8.610;2023-09-18T01:58:43;7.90;;;4.40;;
74777;SDS011;63298;53.164;8.610;2023-09-18T02:01:08;7.80;;;5.03;;
74777;SDS011;63298;53.164;8.610;2023-09-18T02:03:33;7.63;;;4.95;;
74777;SDS011;63298;53.164;8.610;2023-09-18T02:05:59;6.93;;;5.13;;
74777;SDS011;63298;53.164;8.610;2023-09-18T02:08:24;8.10;;;5.23;;
74777;SDS011;63298;53.164;8.610;2023-09-18T02:10:49;6.45;;;5.00;;
74777;SDS011;63298;53.164;8.610;2023-09-18T02:13:14;7.40;;;5.22;;
74777;SDS011;63298;53.164;8.610;2023-09-18T02:15:40;6.28;;;5.07;;
74777;SDS011;63298;53.164;8.610;2023-09-18T02:18:05;6.63;;;5.38;;
74777;SDS011;63298;53.164;8.610;2023-09-18T02:20:30;5.07;;;4.60;;
74777;SDS011;63298;53.164;8.610;2023-09-18T02:22:56;6.63;;;5.35;;
74777;SDS011;63298;53.164;8.610;2023-09-18T02:25:21;8.30;;;6.28;;
74777;SDS011;63298;53.164;8.610;2023-09-18T02:27:46;8.52;;;5.57;;
74777;SDS011;63298;53.164;8.610;2023-09-18T02:30:12;6.07;;;5.32;;
74777;SDS011;63298;53.164;8.610;2023-09-18T02:32:37;5.68;;;4.88;;
74777;SDS011;63298;53.164;8.610;2023-09-18T02:35:03;5.88;;;5.07;;
74777;SDS011;63298;53.164;8.610;2023-09-18T02:37:28;6.25;;;5.00;;
74777;SDS011;63298;53.164;8.610;2023-09-18T02:39:54;7.60;;;5.03;;
74777;SDS011;63298;53.164;8.610;2023-09-18T02:42:19;5.40;;;4.90;;
74777;SDS011;63298;53.164;8.610;2023-09-18T02:44:44;7.13;;;5.38;;
74777;SDS011;63298;53.164;8.610;2023-09-18T02:47:10;7.38;;;4.53;;
74777;SDS011;63298;53.164;8.610;2023-09-18T02:49:35;9.32;;;4.80;;
74777;SDS011;63298;53.164;8.610;2023-09-18T02:52:01;10.70;;;5.30;;
74777;SDS011;63298;53.164;8.610;2023-09-18T02:54:26;7.03;;;5.43;;
74777;SDS011;63298;53.164;8.610;2023-09-18T02:56:51;7.13;;;4.65;;
74777;SDS011;63298;53.164;8.610;2023-09-18T02:59:17;7.50;;;5.18;;
74777;SDS011;63298;53.164;8.610;2023-09-18T03:01:42;6.50;;;5.43;;
74777;SDS011;63298;53.164;8.610;2023-09-18T03:04:07;6.88;;;5.43;;
74777;SDS011;63298;53.164;8.610;2023-09-18T03:06:33;6.40;;;5.13;;
74777;SDS011;63298;53.164;8.610;2023-09-18T03:08:58;5.78;;;4.65;;
74777;SDS011;63298;53.164;8.610;2023-09-18T03:11:23;7.35;;;5.30;;
74777;SDS011;63298;53.164;8.610;2023-09-18T03:13:49;6.07;;;4.40;;
74777;SDS011;63298;53.164;8.610;2023-09-18T03:16:14;6.50;;;4.60;;
74777;SDS011;63298;53.164;8.610;2023-09-18T03:18:40;6.70;;;4.80;;
74777;SDS011;63298;53.164;8.610;2023-09-18T03:21:05;5.30;;;4.35;;
74777;SDS011;63298;53.164;8.610;2023-09-18T03:23:30;7.03;;;4.72;;
74777;SDS011;63298;53.164;8.610;2023-09-18T03:25:56;5.30;;;4.72;;
74777;SDS011;63298;53.164;8.610;2023-09-18T03:28:21;9.60;;;5.13;;
74777;SDS011;63298;53.164;8.610;2023-09-18T03:30:46;9.13;;;4.70;;
74777;SDS011;63298;53.164;8.610;2023-09-18T03:33:12;10.27;;;4.78;;
74777;SDS011;63298;53.164;8.610;2023-09-18T03:35:47;5.65;;;4.05;;
74777;SDS011;63298;53.164;8.610;2023-09-18T03:38:13;8.65;;;4.70;;
74777;SDS011;63298;53.164;8.610;2023-09-18T03:40:39;10.63;;;5.07;;
74777;SDS011;63298;53.164;8.610;2023-09-18T03:43:04;5.15;;;4.65;;
74777;SDS011;63298;53.164;8.610;2023-09-18T03:45:29;5.10;;;4.60;;
74777;SDS011;63298;53.164;8.610;2023-09-18T03:47:54;5.10;;;4.60;;
74777;SDS011;63298;53.164;8.610;2023-09-18T03:50:20;7.50;;;4.93;;
74777;SDS011;63298;53.164;8.610;2023-09-18T03:52:45;8.38;;;4.90;;
74777;SDS011;63298;53.164;8.610;2023-09-18T03:55:10;5.65;;;4.60;;
74777;SDS011;63298;53.164;8.610;2023-09-18T03:57:36;7.03;;;4.55;;
74777;SDS011;63298;53.164;8.610;2023-09-18T04:00:01;6.05;;;4.80;;
74777;SDS011;63298;53.164;8.610;2023-09-18T04:02:26;7.95;;;4.40;;
74777;SDS011;63298;53.164;8.610;2023-09-18T04:04:53;4.40;;;4.03;;
74777;SDS011;63298;53.164;8.610;2023-09-18T04:07:18;5.07;;;4.57;;
74777;SDS011;63298;53.164;8.610;2023-09-18T04:09:43;4.47;;;3.90;;
74777;SDS011;63298;53.164;8.610;2023-09-18T04:12:09;6.32;;;4.32;;
74777;SDS011;63298;53.164;8.610;2023-09-18T04:14:34;4.40;;;4.00;;
74777;SDS011;63298;53.164;8.610;2023-09-18T04:16:59;6.07;;;3.90;;
74777;SDS011;63298;53.164;8.610;2023-09-18T04:19:25;5.57;;;4.43;;
74777;SDS011;63298;53.164;8.610;2023-09-18T04:21:50;5.07;;;4.32;;
74777;SDS011;63298;53.164;8.610;2023-09-18T04:24:15;7.28;;;3.88;;
74777;SDS011;63298;53.164;8.610;2023-09-18T04:26:40;5.05;;;3.78;;
74777;SDS011;63298;53.164;8.610;2023-09-18T04:29:06;8.23;;;4.03;;
74777;SDS011;63298;53.164;8.610;2023-09-18T04:31:31;4.45;;;4.05;;
74777;SDS011;63298;53.164;8.610;2023-09-18T04:33:56;7.05;;;4.30;;
74777;SDS011;63298;53.164;8.610;2023-09-18T04:36:22;5.25;;;3.67;;
74777;SDS011;63298;53.164;8.610;2023-09-18T04:38:47;6.65;;;3.85;;
74777;SDS011;63298;53.164;8.610;2023-09-18T04:41:13;4.68;;;4.28;;
74777;SDS011;63298;53.164;8.610;2023-09-18T04:43:39;4.88;;;4.32;;
74777;SDS011;63298;53.164;8.610;2023-09-18T04:46:04;5.63;;;4.20;;
74777;SDS011;63298;53.164;8.610;2023-09-18T04:48:30;6.35;;;3.83;;
74777;SDS011;63298;53.164;8.610;2023-09-18T04:50:58;6.30;;;4.45;;
74777;SDS011;63298;53.164;8.610;2023-09-18T04:53:24;5.28;;;4.32;;
74777;SDS011;63298;53.164;8.610;2023-09-18T04:55:50;12.77;;;4.10;;
74777;SDS011;63298;53.164;8.610;2023-09-18T04:58:16;5.05;;;4.25;;
74777;SDS011;63298;53.164;8.610;2023-09-18T05:00:41;6.85;;;4.03;;
74777;SDS011;63298;53.164;8.610;2023-09-18T05:03:07;6.27;;;4.03;;
74777;SDS011;63298;53.164;8.610;2023-09-18T05:05:35;3.65;;;3.35;;
74777;SDS011;63298;53.164;8.610;2023-09-18T05:08:01;4.47;;;3.70;;
74777;SDS011;63298;53.164;8.610;2023-09-18T05:10:27;5.80;;;3.85;;
74777;SDS011;63298;53.164;8.610;2023-09-18T05:12:53;5.63;;;3.78;;
74777;SDS011;63298;53.164;8.610;2023-09-18T05:15:18;4.70;;;4.15;;
74777;SDS011;63298;53.164;8.610;2023-09-18T05:17:44;7.32;;;4.20;;
74777;SDS011;63298;53.164;8.610;2023-09-18T05:20:11;4.28;;;3.63;;
74777;SDS011;63298;53.164;8.610;2023-09-18T05:22:37;6.57;;;4.13;;
74777;SDS011;63298;53.164;8.610;2023-09-18T05:25:02;6.80;;;3.88;;
74777;SDS011;63298;53.164;8.610;2023-09-18T05:27:28;7.93;;;3.97;;
74777;SDS011;63298;53.164;8.610;2023-09-18T05:29:53;4.55;;;3.85;;
74777;SDS011;63298;53.164;8.610;2023-09-18T05:32:18;5.57;;;3.80;;
74777;SDS011;63298;53.164;8.610;2023-09-18T05:34:44;6.32;;;3.92;;
74777;SDS011;63298;53.164;8.610;2023-09-18T05:37:09;5.63;;;3.78;;
74777;SDS011;63298;53.164;8.610;2023-09-18T05:39:34;4.40;;;4.00;;
74777;SDS011;63298;53.164;8.610;2023-09-18T05:41:59;7.45;;;4.03;;
74777;SDS011;63298;53.164;8.610;2023-09-18T05:44:25;7.05;;;4.32;;
74777;SDS011;63298;53.164;8.610;2023-09-18T05:46:50;4.60;;;4.20;;
74777;SDS011;63298;53.164;8.610;2023-09-18T05:49:15;7.00;;;4.50;;
74777;SDS011;63298;53.164;8.610;2023-09-18T05:51:41;6.82;;;4.07;;
74777;SDS011;63298;53.164;8.610;2023-09-18T05:54:06;5.85;;;3.85;;
74777;SDS011;63298;53.164;8.610;2023-09-18T05:56:31;5.45;;;3.75;;
74777;SDS011;63298;53.164;8.610;2023-09-18T05:58:56;7.25;;;4.00;;
74777;SDS011;63298;53.164;8.610;2023-09-18T06:01:22;5.30;;;3.80;;
74777;SDS011;63298;53.164;8.610;2023-09-18T06:03:47;5.80;;;3.55;;
74777;SDS011;63298;53.164;8.610;2023-09-18T06:06:13;7.00;;;4.20;;
74777;SDS011;63298;53.164;8.610;2023-09-18T06:08:38;6.68;;;4.28;;
74777;SDS011;63298;53.164;8.610;2023-09-18T06:11:03;7.07;;;3.85;;
74777;SDS011;63298;53.164;8.610;2023-09-18T06:13:28;6.55;;;4.13;;
74777;SDS011;63298;53.164;8.610;2023-09-18T06:15:54;11.30;;;4.15;;
74777;SDS011;63298;53.164;8.610;2023-09-18T06:18:21;5.38;;;3.63;;
74777;SDS011;63298;53.164;8.610;2023-09-18T06:20:47;6.72;;;4.30;;
74777;SDS011;63298;53.164;8.610;2023-09-18T06:23:13;5.25;;;3.90;;
74777;SDS011;63298;53.164;8.610;2023-09-18T06:25:39;9.50;;;4.30;;
74777;SDS011;63298;53.164;8.610;2023-09-18T06:28:04;7.88;;;4.03;;
74777;SDS011;63298;53.164;8.610;2023-09-18T06:30:31;10.65;;;4.20;;
74777;SDS011;63298;53.164;8.610;2023-09-18T06:32:57;8.25;;;5.25;;
74777;SDS011;63298;53.164;8.610;2023-09-18T06:35:22;11.82;;;4.10;;
74777;SDS011;63298;53.164;8.610;2023-09-18T06:37:48;7.05;;;4.18;;
74777;SDS011;63298;53.164;8.610;2023-09-18T06:40:13;6.43;;;3.67;;
74777;SDS011;63298;53.164;8.610;2023-09-18T06:42:39;6.55;;;3.35;;
74777;SDS011;63298;53.164;8.610;2023-09-18T06:45:05;6.82;;;3.50;;
74777;SDS011;63298;53.164;8.610;2023-09-18T06:47:31;5.45;;;3.67;;
74777;SDS011;63298;53.164;8.610;2023-09-18T06:49:56;5.70;;;3.30;;
74777;SDS011;63298;53.164;8.610;2023-09-18T06:52:21;4.32;;;3.60;;
74777;SDS011;63298;53.164;8.610;2023-09-18T06:54:47;5.25;;;3.45;;
74777;SDS011;63298;53.164;8.610;2023-09-18T06:57:12;5.18;;;3.88;;
74777;SDS011;63298;53.164;8.610;2023-09-18T06:59:37;6.87;;;3.47;;
74777;SDS011;63298;53.164;8.610;2023-09-18T07:02:02;7.30;;;3.83;;
74777;SDS011;63298;53.164;8.610;2023-09-18T07:04:28;5.30;;;3.80;;
74777;SDS011;63298;53.164;8.610;2023-09-18T07:06:53;5.15;;;3.90;;
74777;SDS011;63298;53.164;8.610;2023-09-18T07:09:19;8.18;;;4.00;;
74777;SDS011;63298;53.164;8.610;2023-09-18T07:11:45;7.88;;;3.90;;
74777;SDS011;63298;53.164;8.610;2023-09-18T07:14:10;4.78;;;3.97;;
74777;SDS011;63298;53.164;8.610;2023-09-18T07:16:35;5.70;;;3.88;;
74777;SDS011;63298;53.164;8.610;2023-09-18T07:19:01;5.75;;;3.53;;
74777;SDS011;63298;53.164;8.610;2023-09-18T07:21:26;8.20;;;3.92;;
74777;SDS011;63298;53.164;8.610;2023-09-18T07:23:52;4.05;;;3.75;;
74777;SDS011;63298;53.164;8.610;2023-09-18T07:26:17;9.60;;;3.85;;
74777;SDS011;63298;53.164;8.610;2023-09-18T07:28:42;6.70;;;3.90;;
74777;SDS011;63298;53.164;8.610;2023-09-18T07:31:08;6.28;;;3.88;;
74777;SDS011;63298;53.164;8.610;2023-09-18T07:33:33;5.75;;;3.75;;
74777;SDS011;63298;53.164;8.610;2023-09-18T07:35:59;5.00;;;3.83;;
74777;SDS011;63298;53.164;8.610;2023-09-18T07:38:25;7.95;;;3.35;;
74777;SDS011;63298;53.164;8.610;2023-09-18T07:40:50;6.83;;;4.00;;
74777;SDS011;63298;53.164;8.610;2023-09-18T07:43:15;4.30;;;3.90;;
74777;SDS011;63298;53.164;8.610;2023-09-18T07:45:41;4.35;;;3.95;;
74777;SDS011;63298;53.164;8.610;2023-09-18T07:48:06;5.63;;;3.63;;
74777;SDS011;63298;53.164;8.610;2023-09-18T07:50:33;4.00;;;3.60;;
74777;SDS011;63298;53.164;8.610;2023-09-18T07:52:59;5.05;;;4.30;;
74777;SDS011;63298;53.164;8.610;2023-09-18T07:55:25;7.93;;;4.28;;
74777;SDS011;63298;53.164;8.610;2023-09-18T07:57:50;11.70;;;4.25;;
74777;SDS011;63298;53.164;8.610;2023-09-18T08:00:15;6.28;;;3.83;;
74777;SDS011;63298;53.164;8.610;2023-09-18T08:02:41;5.43;;;4.03;;
74777;SDS011;63298;53.164;8.610;2023-09-18T08:05:06;4.90;;;3.95;;
74777;SDS011;63298;53.164;8.610;2023-09-18T08:07:32;4.10;;;3.72;;
74777;SDS011;63298;53.164;8.610;2023-09-18T08:09:57;8.32;;;4.22;;
74777;SDS011;63298;53.164;8.610;2023-09-18T08:12:23;4.15;;;3.75;;
74777;SDS011;63298;53.164;8.610;2023-09-18T08:14:49;5.35;;;4.03;;
74777;SDS011;63298;53.164;8.610;2023-09-18T08:17:14;4.88;;;3.88;;
74777;SDS011;63298;53.164;8.610;2023-09-18T08:19:39;6.60;;;3.67;;
74777;SDS011;63298;53.164;8.610;2023-09-18T08:22:05;9.60;;;3.45;;
74777;SDS011;63298;53.164;8.610;2023-09-18T08:24:30;8.63;;;3.60;;
74777;SDS011;63298;53.164;8.610;2023-09-18T08:26:55;10.77;;;3.63;;
74777;SDS011;63298;53.164;8.610;2023-09-18T08:29:21;5.07;;;3.08;;
74777;SDS011;63298;53.164;8.610;2023-09-18T08:31:47;6.35;;;3.97;;
74777;SDS011;63298;53.164;8.610;2023-09-18T08:34:12;8.82;;;3.60;;
74777;SDS011;63298;53.164;8.610;2023-09-18T08:36:38;7.13;;;3.20;;
74777;SDS011;63298;53.164;8.610;2023-09-18T08:39:03;4.32;;;3.33;;
74777;SDS011;63298;53.164;8.610;2023-09-18T08:41:29;6.68;;;3.63;;
74777;SDS011;63298;53.164;8.610;2023-09-18T08:44:00;4.78;;;3.28;;
74777;SDS011;63298;53.164;8.610;2023-09-18T08:46:27;4.82;;;3.42;;
74777;SDS011;63298;53.164;8.610;2023-09-18T08:48:52;5.97;;;3.47;;
74777;SDS011;63298;53.164;8.610;2023-09-18T08:51:19;8.68;;;3.38;;
74777;SDS011;63298;53.164;8.610;2023-09-18T08:53:46;3.90;;;3.58;;
74777;SDS011;63298;53.164;8.610;2023-09-18T08:56:12;4.72;;;2.88;;
74777;SDS011;63298;53.164;8.610;2023-09-18T08:58:38;5.60;;;3.15;;
74777;SDS011;63298;53.164;8.610;2023-09-18T09:01:04;4.68;;;3.00;;
74777;SDS011;63298;53.164;8.610;2023-09-18T09:03:30;12.98;;;3.47;;
74777;SDS011;63298;53.164;8.610;2023-09-18T09:05:56;4.45;;;2.67;;
74777;SDS011;63298;53.164;8.610;2023-09-18T09:08:22;4.82;;;2.90;;
74777;SDS011;63298;53.164;8.610;2023-09-18T09:10:48;5.95;;;3.10;;
74777;SDS011;63298;53.164;8.610;2023-09-18T09:13:14;7.05;;;2.88;;
74777;SDS011;63298;53.164;8.610;2023-09-18T09:15:48;3.85;;;2.70;;
74777;SDS011;63298;53.164;8.610;2023-09-18T09:18:13;4.15;;;2.78;;
74777;SDS011;63298;53.164;8.610;2023-09-18T09:20:39;9.82;;;2.85;;
74777;SDS011;63298;53.164;8.610;2023-09-18T09:23:05;4.13;;;2.83;;
74777;SDS011;63298;53.164;8.610;2023-09-18T09:25:31;4.68;;;2.75;;
74777;SDS011;63298;53.164;8.610;2023-09-18T09:27:58;4.50;;;3.05;;
74777;SDS011;63298;53.164;8.610;2023-09-18T09:30:28;5.10;;;3.00;;
74777;SDS011;63298;53.164;8.610;2023-09-18T09:32:54;3.75;;;2.40;;
74777;SDS011;63298;53.164;8.610;2023-09-18T09:35:21;5.32;;;2.85;;
74777;SDS011;63298;53.164;8.610;2023-09-18T09:37:51;9.55;;;2.88;;
74777;SDS011;63298;53.164;8.610;2023-09-18T09:40:18;9.38;;;2.97;;
74777;SDS011;63298;53.164;8.610;2023-09-18T09:42:45;8.30;;;2.58;;
74777;SDS011;63298;53.164;8.610;2023-09-18T09:45:11;7.68;;;2.72;;
74777;SDS011;63298;53.164;8.610;2023-09-18T09:47:38;6.53;;;2.90;;
74777;SDS011;63298;53.164;8.610;2023-09-18T09:50:07;7.03;;;3.10;;
74777;SDS011;63298;53.164;8.610;2023-09-18T09:52:43;6.90;;;2.33;;
74777;SDS011;63298;53.164;8.610;2023-09-18T09:55:21;4.68;;;2.55;;
74777;SDS011;63298;53.164;8.610;2023-09-18T09:57:58;8.75;;;3.05;;
74777;SDS011;63298;53.164;8.610;2023-09-18T10:00:25;11.90;;;2.92;;
74777;SDS011;63298;53.164;8.610;2023-09-18T10:02:54;7.53;;;2.70;;
74777;SDS011;63298;53.164;8.610;2023-09-18T10:05:22;9.73;;;2.85;;
74777;SDS011;63298;53.164;8.610;2023-09-18T10:10:16;6.43;;;2.40;;
74777;SDS011;63298;53.164;8.610;2023-09-18T10:12:42;10.07;;;2.97;;
74777;SDS011;63298;53.164;8.610;2023-09-18T10:15:11;3.67;;;2.50;;
74777;SDS011;63298;53.164;8.610;2023-09-18T10:17:37;8.50;;;2.35;;
74777;SDS011;63298;53.164;8.610;2023-09-18T10:20:08;7.90;;;2.58;;
74777;SDS011;63298;53.164;8.610;2023-09-18T10:22:37;6.15;;;2.55;;
74777;SDS011;63298;53.164;8.610;2023-09-18T10:25:24;10.25;;;2.63;;
74777;SDS011;63298;53.164;8.610;2023-09-18T10:27:51;8.82;;;2.70;;
74777;SDS011;63298;53.164;8.610;2023-09-18T10:30:17;6.82;;;2.20;;
74777;SDS011;63298;53.164;8.610;2023-09-18T10:32:42;5.28;;;2.42;;
74777;SDS011;63298;53.164;8.610;2023-09-18T10:35:09;8.32;;;3.10;;
74777;SDS011;63298;53.164;8.610;2023-09-18T10:37:36;10.00;;;2.95;;
74777;SDS011;63298;53.164;8.610;2023-09-18T10:40:02;7.28;;;2.47;;
74777;SDS011;63298;53.164;8.610;2023-09-18T10:42:29;8.82;;;2.50;;
74777;SDS011;63298;53.164;8.610;2023-09-18T10:44:56;5.15;;;2.40;;
74777;SDS011;63298;53.164;8.610;2023-09-18T10:47:21;8.35;;;2.50;;
74777;SDS011;63298;53.164;8.610;2023-09-18T10:49:48;4.70;;;2.20;;
74777;SDS011;63298;53.164;8.610;2023-09-18T10:52:13;7.53;;;2.42;;
74777;SDS011;63298;53.164;8.610;2023-09-18T10:54:39;6.13;;;2.60;;
74777;SDS011;63298;53.164;8.610;2023-09-18T10:57:04;7.07;;;2.65;;
74777;SDS011;63298;53.164;8.610;2023-09-18T10:59:30;5.75;;;2.33;;
74777;SDS011;63298;53.164;8.610;2023-09-18T11:01:55;6.85;;;2.30;;
74777;SDS011;63298;53.164;8.610;2023-09-18T11:04:21;7.82;;;2.67;;
74777;SDS011;63298;53.164;8.610;2023-09-18T11:09:26;5.22;;;2.35;;
74777;SDS011;63298;53.164;8.610;2023-09-18T11:12:02;6.40;;;2.28;;
74777;SDS011;63298;53.164;8.610;2023-09-18T11:14:47;6.95;;;2.72;;
74777;SDS011;63298;53.164;8.610;2023-09-18T11:17:30;5.22;;;2.15;;
74777;SDS011;63298;53.164;8.610;2023-09-18T11:22:31;8.35;;;2.40;;
74777;SDS011;63298;53.164;8.610;2023-09-18T11:25:28;5.28;;;2.00;;
74777;SDS011;63298;53.164;8.610;2023-09-18T11:27:54;6.65;;;1.80;;
74777;SDS011;63298;53.164;8.610;2023-09-18T11:30:20;3.33;;;2.28;;
74777;SDS011;63298;53.164;8.610;2023-09-18T11:32:45;6.40;;;2.17;;
74777;SDS011;63298;53.164;8.610;2023-09-18T11:35:11;4.78;;;2.22;;
74777;SDS011;63298;53.164;8.610;2023-09-18T11:37:36;6.05;;;2.20;;
74777;SDS011;63298;53.164;8.610;2023-09-18T11:40:02;5.97;;;2.00;;
74777;SDS011;63298;53.164;8.610;2023-09-18T11:42:27;6.53;;;2.20;;
74777;SDS011;63298;53.164;8.610;2023-09-18T11:44:53;4.82;;;2.20;;
74777;SDS011;63298;53.164;8.610;2023-09-18T11:47:19;6.32;;;2.20;;
74777;SDS011;63298;53.164;8.610;2023-09-18T11:52:16;3.53;;;1.98;;
74777;SDS011;63298;53.164;8.610;2023-09-18T11:54:42;2.83;;;1.80;;
74777;SDS011;63298;53.164;8.610;2023-09-18T11:57:08;5.50;;;2.33;;
74777;SDS011;63298;53.164;8.610;2023-09-18T11:59:37;6.47;;;3.22;;
74777;SDS011;63298;53.164;8.610;2023-09-18T12:02:04;6.20;;;2.00;;
74777;SDS011;63298;53.164;8.610;2023-09-18T12:04:29;4.80;;;2.10;;
74777;SDS011;63298;53.164;8.610;2023-09-18T12:06:55;3.55;;;2.05;;
74777;SDS011;63298;53.164;8.610;2023-09-18T12:09:20;4.80;;;1.73;;
74777;SDS011;63298;53.164;8.610;2023-09-18T12:11:45;3.45;;;1.65;;
74777;SDS011;63298;53.164;8.610;2023-09-18T12:14:11;6.68;;;1.63;;
74777;SDS011;63298;53.164;8.610;2023-09-18T12:16:39;3.50;;;1.60;;
74777;SDS011;63298;53.164;8.610;2023-09-18T12:19:05;4.63;;;1.50;;
74777;SDS011;63298;53.164;8.610;2023-09-18T12:21:30;1.95;;;1.30;;
74777;SDS011;63298;53.164;8.610;2023-09-18T12:23:55;2.92;;;1.30;;
74777;SDS011;63298;53.164;8.610;2023-09-18T12:26:21;2.45;;;1.42;;
74777;SDS011;63298;53.164;8.610;2023-09-18T12:28:46;6.30;;;1.40;;
74777;SDS011;63298;53.164;8.610;2023-09-18T12:31:13;1.90;;;1.25;;
74777;SDS011;63298;53.164;8.610;2023-09-18T12:33:40;5.30;;;1.70;;
74777;SDS011;63298;53.164;8.610;2023-09-18T12:36:06;5.00;;;1.40;;
74777;SDS011;63298;53.164;8.610;2023-09-18T12:38:33;2.40;;;1.30;;
74777;SDS011;63298;53.164;8.610;2023-09-18T12:40:59;2.08;;;1.00;;
74777;SDS011;63298;53.164;8.610;2023-09-18T12:43:25;2.78;;;1.20;;
74777;SDS011;63298;53.164;8.610;2023-09-18T12:45:50;1.88;;;1.20;;
74777;SDS011;63298;53.164;8.610;2023-09-18T12:48:17;3.50;;;1.40;;
74777;SDS011;63298;53.164;8.610;2023-09-18T12:50:43;3.75;;;1.20;;
74777;SDS011;63298;53.164;8.610;2023-09-18T12:53:08;2.47;;;1.40;;
74777;SDS011;63298;53.164;8.610;2023-09-18T12:55:38;1.45;;;1.00;;
74777;SDS011;63298;53.164;8.610;2023-09-18T12:58:05;3.28;;;1.20;;
74777;SDS011;63298;53.164;8.610;2023-09-18T13:00:31;3.08;;;1.20;;
74777;SDS011;63298;53.164;8.610;2023-09-18T13:02:56;2.60;;;1.27;;
74777;SDS011;63298;53.164;8.610;2023-09-18T13:05:22;2.53;;;1.30;;
74777;SDS011;63298;53.164;8.610;2023-09-18T13:07:48;2.88;;;1.48;;
74777;SDS011;63298;53.164;8.610;2023-09-18T13:10:14;5.45;;;1.30;;
74777;SDS011;63298;53.164;8.610;2023-09-18T13:12:42;4.43;;;1.30;;
74777;SDS011;63298;53.164;8.610;2023-09-18T13:15:11;1.98;;;1.20;;
74777;SDS011;63298;53.164;8.610;2023-09-18T13:17:45;2.83;;;0.85;;
74777;SDS011;63298;53.164;8.610;2023-09-18T13:20:12;4.40;;;1.20;;
74777;SDS011;63298;53.164;8.610;2023-09-18T13:22:39;3.55;;;1.30;;
74777;SDS011;63298;53.164;8.610;2023-09-18T13:25:12;2.28;;;1.20;;
74777;SDS011;63298;53.164;8.610;2023-09-18T13:27:44;5.40;;;1.15;;
74777;SDS011;63298;53.164;8.610;2023-09-18T13:30:10;4.43;;;1.38;;
74777;SDS011;63298;53.164;8.610;2023-09-18T13:32:35;2.47;;;1.20;;
74777;SDS011;63298;53.164;8.610;2023-09-18T13:35:04;2.05;;;1.15;;
74777;SDS011;63298;53.164;8.610;2023-09-18T13:37:29;3.60;;;1.30;;
74777;SDS011;63298;53.164;8.610;2023-09-18T13:39:55;1.10;;;1.00;;
74777;SDS011;63298;53.164;8.610;2023-09-18T13:42:20;1.80;;;1.00;;
74777;SDS011;63298;53.164;8.610;2023-09-18T13:44:45;1.60;;;1.10;;
74777;SDS011;63298;53.164;8.610;2023-09-18T13:47:10;2.45;;;1.20;;
74777;SDS011;63298;53.164;8.610;2023-09-18T13:49:36;3.28;;;1.10;;
74777;SDS011;63298;53.164;8.610;2023-09-18T13:52:01;1.27;;;1.15;;
74777;SDS011;63298;53.164;8.610;2023-09-18T13:54:26;2.47;;;1.30;;
74777;SDS011;63298;53.164;8.610;2023-09-18T13:56:52;3.63;;;1.40;;
74777;SDS011;63298;53.164;8.610;2023-09-18T13:59:17;2.00;;;1.05;;
74777;SDS011;63298;53.164;8.610;2023-09-18T14:01:42;0.80;;;0.80;;
74777;SDS011;63298;53.164;8.610;2023-09-18T14:04:08;2.28;;;1.23;;
74777;SDS011;63298;53.164;8.610;2023-09-18T14:06:33;4.25;;;1.60;;
74777;SDS011;63298;53.164;8.610;2023-09-18T14:08:58;2.72;;;0.90;;
74777;SDS011;63298;53.164;8.610;2023-09-18T14:11:24;3.88;;;1.80;;
74777;SDS011;63298;53.164;8.610;2023-09-18T14:13:49;4.65;;;1.20;;
74777;SDS011;63298;53.164;8.610;2023-09-18T14:16:14;1.20;;;1.10;;
74777;SDS011;63298;53.164;8.610;2023-09-18T14:18:40;1.35;;;1.13;;
74777;SDS011;63298;53.164;8.610;2023-09-18T14:21:05;1.27;;;1.23;;
74777;SDS011;63298;53.164;8.610;2023-09-18T14:23:31;1.85;;;1.00;;
74777;SDS011;63298;53.164;8.610;2023-09-18T14:25:56;1.50;;;1.25;;
74777;SDS011;63298;53.164;8.610;2023-09-18T14:28:22;1.48;;;1.38;;
74777;SDS011;63298;53.164;8.610;2023-09-18T14:30:47;1.55;;;1.45;;
74777;SDS011;63298;53.164;8.610;2023-09-18T14:33:12;2.70;;;1.40;;
74777;SDS011;63298;53.164;8.610;2023-09-18T14:35:37;2.10;;;1.67;;
74777;SDS011;63298;53.164;8.610;2023-09-18T14:38:03;3.22;;;1.50;;
74777;SDS011;63298;53.164;8.610;2023-09-18T14:40:28;3.75;;;1.50;;
74777;SDS011;63298;53.164;8.610;2023-09-18T14:42:53;2.95;;;1.70;;
74777;SDS011;63298;53.164;8.610;2023-09-18T14:45:18;1.88;;;1.60;;
74777;SDS011;63298;53.164;8.610;2023-09-18T14:47:44;1.63;;;1.52;;
74777;SDS011;63298;53.164;8.610;2023-09-18T14:50:09;2.08;;;1.40;;
74777;SDS011;63298;53.164;8.610;2023-09-18T14:52:34;4.30;;;1.63;;